首页
METAR-TAF:

METAR-TAF

机场 :

阿必尚國際機場

阿比让, 科特迪瓦

纬度: 05-15N, 经度: 003-56W, 海拔: 7米

当前天气观测

该预报发布于10分钟前的00:00 UTC
风速3节,风向西北,在西之间变化
温度 25°C
湿度 94%
气压 1014 hPa
能見度: 8000
少量云层高于1100英尺
多云层高于4000英尺

METAR: DIAP 200000Z 31003KT 260V350 8000 FEW011 BKN040 25/24 Q1014 NOSIG

时间: 00:10 (00:10 UTC)

预报

该预报发布于1小时和10分钟前的23:00 UTC
预报有效从20日的 00点(UTC)到 21日的 06点(UTC)
风速5节,风向西
能見度: 8000
少量云层高于1200英尺
几率 30% :
短暂存在
从 20日的 02点(UTC)到 20日的 08点(UTC)
能見度: 4000
多云层高于1000英尺
几率 30% :
短暂存在
从 20日的 08点(UTC)到 20日的 14点(UTC)
多云层高于1200英尺
成为
从 20日的 14点(UTC)到 20日的 18点(UTC)
能見度: 4000
多云层高于1200英尺
少量云层高于2000英尺, 积雨云.
雷暴, 雨

TAF: DIAP 192300Z 2000/2106 26005KT 8000 FEW012 PROB30 TEMPO 2002/2008 4000 RA BKN010 PROB30 TEMPO 2008/2014 BKN012 BECMG 2014/2018 4000 TSRA BKN012 FEW020CB

超过4000个机场的气象观测和天气预报(METAR&TAF报告)。

可查询的气象台以黄色和红色小点在地图上表示。

将鼠标移到小点上方,可查看气象台名称。

然后点击查看天气观测和预报。

如需切换地图:点击带黑十字的绿色按钮放大地图;点击带横线的绿色按钮缩小地图;或者点击绿色箭头查看邻近地区的地图。


METAR-TAF: